Time;durP1;ratioP1;P1;durP2;ratioP2;P2;SDS_P1;SDS_P2;PMS_P1;PMS_P2;Temp;Humidity;BMP_temperature;BMP_pressure;BME280_temperature;BME280_humidity;BME280_pressure;Samples;Min_cycle;Max_cycle;Signal;HPM_P1;HPM_P2
2023/08/18 00:01:07;;;;;;;29.15;21.95;;;23.50;99.90;;;;;;5089394;28;20209;-24
2023/08/18 00:03:37;;;;;;;27.85;21.55;;;23.40;99.90;;;;;;5070603;28;20302;-24
2023/08/18 00:06:05;;;;;;;30.77;22.38;;;23.40;99.90;;;;;;5088573;28;20313;-24
2023/08/18 00:08:32;;;;;;;28.48;22.35;;;23.40;99.90;;;;;;5088782;28;20802;-24
2023/08/18 00:11:02;;;;;;;25.67;20.95;;;23.30;99.90;;;;;;5070230;28;20225;-24
2023/08/18 00:13:34;;;;;;;27.08;20.67;;;23.30;99.90;;;;;;5088636;28;20187;-24
2023/08/18 00:16:01;;;;;;;30.35;22.40;;;23.30;99.90;;;;;;5070737;28;20233;-24
2023/08/18 00:18:29;;;;;;;25.98;21.48;;;23.30;99.90;;;;;;5071139;28;20214;-25
2023/08/18 00:21:06;;;;;;;26.60;20.10;;;23.30;99.90;;;;;;5087754;28;20198;-24
2023/08/18 00:23:36;;;;;;;27.33;20.73;;;23.30;99.90;;;;;;5070441;28;20271;-24
2023/08/18 00:26:05;;;;;;;25.63;20.58;;;23.30;99.90;;;;;;5088466;28;20202;-24
2023/08/18 00:28:35;;;;;;;24.27;20.10;;;23.20;99.90;;;;;;5088220;28;20198;-24
2023/08/18 00:31:05;;;;;;;28.95;21.33;;;23.20;99.90;;;;;;5088186;28;20231;-24
2023/08/18 00:33:39;;;;;;;25.60;21.20;;;23.20;99.90;;;;;;5071107;28;20280;-24
2023/08/18 00:36:08;;;;;;;27.25;20.95;;;23.20;99.90;;;;;;5088140;28;20239;-24
2023/08/18 00:38:35;;;;;;;26.83;23.05;;;23.20;99.90;;;;;;5086792;28;20401;-25
2023/08/18 00:41:10;;;;;;;26.88;20.75;;;23.40;99.90;;;;;;5088067;28;20298;-24
2023/08/18 00:43:38;;;;;;;27.20;20.30;;;23.40;99.90;;;;;;5087885;28;20231;-25
2023/08/18 00:46:06;;;;;;;23.08;19.85;;;23.30;99.90;;;;;;5087871;28;20238;-24
2023/08/18 00:48:37;;;;;;;28.45;20.25;;;23.30;99.90;;;;;;5069560;28;20580;-24
2023/08/18 00:51:05;;;;;;;28.35;20.17;;;23.30;99.90;;;;;;5036938;28;20275;-24
2023/08/18 00:53:35;;;;;;;29.55;21.75;;;23.30;99.90;;;;;;5088306;28;20755;-24
2023/08/18 00:56:06;;;;;;;25.58;20.42;;;23.20;99.90;;;;;;5070042;28;20229;-24
2023/08/18 00:58:36;;;;;;;26.10;20.52;;;23.20;99.90;;;;;;5057436;28;20728;-24
2023/08/18 01:01:04;;;;;;;24.08;19.83;;;23.20;99.90;;;;;;5067236;28;20685;-24
2023/08/18 01:03:31;;;;;;;26.08;19.58;;;23.20;99.90;;;;;;5066910;28;20219;-24
2023/08/18 01:06:01;;;;;;;21.83;18.70;;;23.10;99.90;;;;;;5049227;28;20222;-24
2023/08/18 01:08:33;;;;;;;22.60;19.15;;;23.20;99.90;;;;;;5067483;28;20564;-24
2023/08/18 01:11:35;;;;;;;22.65;19.83;;;23.20;99.90;;;;;;5067240;28;20227;-25
2023/08/18 01:14:14;;;;;;;23.17;19.48;;;23.20;99.90;;;;;;5053210;28;20248;-24
2023/08/18 01:16:48;;;;;;;25.92;20.58;;;23.20;99.90;;;;;;5052827;28;20195;-24
2023/08/18 01:19:23;;;;;;;24.45;20.10;;;23.20;99.90;;;;;;5065428;28;20345;-32
2023/08/18 01:21:55;;;;;;;23.80;20.25;;;23.20;99.90;;;;;;5066564;28;20984;-32
2023/08/18 01:24:30;;;;;;;22.27;19.73;;;23.10;99.90;;;;;;5029341;28;20212;-32
2023/08/18 01:27:00;;;;;;;28.10;21.17;;;23.20;99.90;;;;;;5063661;28;20633;-32
2023/08/18 01:29:27;;;;;;;26.00;21.05;;;23.20;99.90;;;;;;5049367;28;20200;-32
2023/08/18 01:32:01;;;;;;;25.98;21.00;;;23.20;99.90;;;;;;5064369;28;20220;-32
2023/08/18 01:34:30;;;;;;;25.88;21.50;;;23.20;99.90;;;;;;5065380;28;20830;-32
2023/08/18 01:36:59;;;;;;;28.85;21.67;;;23.10;99.90;;;;;;5067232;28;20221;-32
2023/08/18 01:39:30;;;;;;;26.42;22.50;;;23.20;99.90;;;;;;5066868;28;20250;-32
2023/08/18 01:42:00;;;;;;;27.50;21.92;;;23.20;99.90;;;;;;5066683;28;20204;-32
2023/08/18 01:44:30;;;;;;;27.55;22.23;;;23.10;99.90;;;;;;5066495;28;20802;-32
2023/08/18 01:46:57;;;;;;;26.25;21.60;;;23.10;99.90;;;;;;5065556;28;20805;-32
2023/08/18 01:49:24;;;;;;;25.85;21.15;;;23.10;99.90;;;;;;5048367;28;20685;-31
2023/08/18 01:51:56;;;;;;;27.17;22.35;;;23.10;99.90;;;;;;5048829;28;20259;-32
2023/08/18 01:54:25;;;;;;;27.80;22.48;;;23.10;99.90;;;;;;5066513;28;20277;-32
2023/08/18 01:56:57;;;;;;;27.83;22.48;;;23.10;99.90;;;;;;5048764;28;20199;-32
2023/08/18 01:59:28;;;;;;;27.88;22.67;;;23.10;99.90;;;;;;5064938;28;20322;-32
2023/08/18 02:01:58;;;;;;;30.77;24.45;;;23.10;99.90;;;;;;5066303;28;20223;-31
2023/08/18 02:04:25;;;;;;;28.25;23.02;;;23.10;99.90;;;;;;5048786;28;20254;-32
2023/08/18 02:06:52;;;;;;;29.67;23.52;;;23.10;99.90;;;;;;5065252;28;20207;-31
2023/08/18 02:09:19;;;;;;;27.55;24.50;;;23.10;99.90;;;;;;5066561;28;20231;-31
2023/08/18 02:11:49;;;;;;;29.80;23.00;;;23.10;99.90;;;;;;5047945;28;20230;-32
2023/08/18 02:14:18;;;;;;;28.90;24.33;;;23.10;99.90;;;;;;5066338;28;20688;-32
2023/08/18 02:16:48;;;;;;;28.05;24.25;;;23.10;99.90;;;;;;5048648;28;20542;-32
2023/08/18 02:19:22;;;;;;;30.55;24.88;;;23.10;99.90;;;;;;5064383;28;20204;-32
2023/08/18 02:21:50;;;;;;;31.02;25.33;;;23.10;99.90;;;;;;5048965;28;20741;-24
2023/08/18 02:24:20;;;;;;;27.75;23.67;;;23.10;99.90;;;;;;5047803;28;20731;-24
2023/08/18 02:26:47;;;;;;;31.45;25.45;;;23.10;99.90;;;;;;5064493;28;20223;-24
2023/08/18 02:29:16;;;;;;;33.72;25.80;;;23.10;99.90;;;;;;5066289;28;20213;-24
2023/08/18 02:31:47;;;;;;;32.80;27.23;;;23.10;99.90;;;;;;5064660;28;20743;-24
2023/08/18 02:34:17;;;;;;;32.38;26.80;;;23.10;99.90;;;;;;5031439;28;20567;-24
2023/08/18 02:36:44;;;;;;;34.95;28.70;;;23.10;99.90;;;;;;5065684;28;20239;-24
2023/08/18 02:39:11;;;;;;;37.00;29.83;;;23.10;99.90;;;;;;5048299;28;20734;-24
2023/08/18 02:41:43;;;;;;;31.85;27.98;;;23.10;99.90;;;;;;5064975;28;20203;-24
2023/08/18 02:44:11;;;;;;;37.13;29.75;;;23.10;99.90;;;;;;5063816;28;20292;-24
2023/08/18 02:46:40;;;;;;;35.10;29.98;;;23.10;99.90;;;;;;5047910;28;20219;-24
2023/08/18 02:49:09;;;;;;;36.88;30.35;;;23.10;99.90;;;;;;5031466;28;20286;-24
2023/08/18 02:51:37;;;;;;;36.10;29.08;;;23.10;99.90;;;;;;5066016;28;20633;-24
2023/08/18 02:54:09;;;;;;;36.45;29.85;;;23.10;99.90;;;;;;5066110;28;20615;-24
2023/08/18 02:56:37;;;;;;;37.80;29.83;;;23.10;99.90;;;;;;5065815;28;20203;-24
2023/08/18 02:59:04;;;;;;;37.60;30.73;;;23.00;99.90;;;;;;5047860;28;20203;-24
2023/08/18 03:01:32;;;;;;;39.05;30.10;;;23.00;99.90;;;;;;5065769;28;20211;-24
2023/08/18 03:03:59;;;;;;;38.65;29.80;;;23.00;99.90;;;;;;5063890;28;20225;-24
2023/08/18 03:06:27;;;;;;;40.38;31.33;;;23.00;99.90;;;;;;5065392;28;20204;-24
2023/08/18 03:08:57;;;;;;;40.00;31.95;;;23.00;99.90;;;;;;5047527;28;20207;-24
2023/08/18 03:11:24;;;;;;;39.55;31.77;;;23.00;99.90;;;;;;5065403;28;20300;-24
2023/08/18 03:13:53;;;;;;;38.63;31.60;;;23.00;99.90;;;;;;5048055;28;20597;-24
2023/08/18 03:16:20;;;;;;;38.20;31.83;;;23.00;99.90;;;;;;5031199;28;20230;-33
2023/08/18 03:18:51;;;;;;;38.00;32.10;;;23.00;99.90;;;;;;5066011;28;20200;-32
2023/08/18 03:21:20;;;;;;;45.75;35.10;;;23.00;99.90;;;;;;5065345;28;20207;-32
2023/08/18 03:23:49;;;;;;;43.10;35.10;;;23.00;99.90;;;;;;5031323;28;20215;-32
2023/08/18 03:26:18;;;;;;;44.58;35.50;;;23.00;99.90;;;;;;5063904;28;20199;-32
2023/08/18 03:28:46;;;;;;;43.38;35.03;;;23.00;99.90;;;;;;5065018;28;20211;-32
2023/08/18 03:31:13;;;;;;;44.85;35.67;;;23.00;99.90;;;;;;5063610;28;20257;-32
2023/08/18 03:33:43;;;;;;;44.90;35.85;;;23.00;99.90;;;;;;5065538;28;20192;-32
2023/08/18 03:36:12;;;;;;;48.58;37.88;;;23.00;99.90;;;;;;5063314;28;20322;-32
2023/08/18 03:38:42;;;;;;;46.72;36.38;;;23.00;99.90;;;;;;5064678;28;20682;-32
2023/08/18 03:41:12;;;;;;;50.58;37.90;;;23.00;99.90;;;;;;5031578;28;20188;-32
2023/08/18 03:43:40;;;;;;;50.25;38.53;;;22.90;99.90;;;;;;5063761;28;20757;-32
2023/08/18 03:46:27;;;;;;;52.25;38.28;;;22.90;99.90;;;;;;5063676;28;20466;-33
2023/08/18 03:48:57;;;;;;;49.72;38.67;;;22.90;99.90;;;;;;5031744;28;20257;-32
2023/08/18 03:51:25;;;;;;;46.15;35.85;;;22.90;99.90;;;;;;5046999;28;20273;-32
2023/08/18 03:53:55;;;;;;;47.75;36.38;;;22.90;99.90;;;;;;5048012;28;20196;-32
2023/08/18 03:56:22;;;;;;;48.65;37.28;;;22.90;99.90;;;;;;5065451;28;20265;-32
2023/08/18 03:58:52;;;;;;;47.13;35.97;;;22.80;99.90;;;;;;5068684;28;20291;-32
2023/08/18 04:01:22;;;;;;;45.10;34.97;;;22.80;99.90;;;;;;5050580;28;20199;-33
2023/08/18 04:03:50;;;;;;;49.65;36.33;;;22.80;99.90;;;;;;5068549;28;20228;-33
2023/08/18 04:06:19;;;;;;;48.85;36.00;;;22.80;99.90;;;;;;5068299;28;20215;-33
2023/08/18 04:08:47;;;;;;;46.70;36.10;;;22.80;99.90;;;;;;5050261;28;20196;-33
2023/08/18 04:11:19;;;;;;;47.78;36.47;;;22.80;99.90;;;;;;5068566;28;20671;-33
2023/08/18 04:13:48;;;;;;;47.45;36.03;;;22.80;99.90;;;;;;5068204;28;20203;-33
2023/08/18 04:16:17;;;;;;;49.20;36.25;;;22.80;99.90;;;;;;5050715;28;20215;-32
2023/08/18 04:18:46;;;;;;;52.28;37.95;;;22.80;99.90;;;;;;5066961;28;20818;-32
2023/08/18 04:21:13;;;;;;;53.88;39.20;;;22.80;99.90;;;;;;5050498;28;20218;-32
2023/08/18 04:23:41;;;;;;;52.67;37.60;;;22.70;99.90;;;;;;5050437;28;20220;-32
2023/08/18 04:26:08;;;;;;;54.85;39.70;;;22.70;99.90;;;;;;5066932;28;20508;-32
2023/08/18 04:28:35;;;;;;;55.72;40.13;;;22.70;99.90;;;;;;5050256;28;20208;-32
2023/08/18 04:31:05;;;;;;;59.50;41.05;;;22.70;99.90;;;;;;5067029;28;20576;-32
2023/08/18 04:33:34;;;;;;;57.47;41.10;;;22.70;99.90;;;;;;5067784;28;20568;-32
2023/08/18 04:36:01;;;;;;;56.42;40.58;;;22.70;99.90;;;;;;5068734;28;20215;-32
2023/08/18 04:38:31;;;;;;;62.05;42.25;;;22.70;99.90;;;;;;5068007;28;20664;-32
2023/08/18 04:41:02;;;;;;;57.03;40.50;;;22.70;99.90;;;;;;5049935;28;20234;-32
2023/08/18 04:43:33;;;;;;;59.90;39.90;;;22.70;99.90;;;;;;5067637;28;20266;-32
2023/08/18 04:46:00;;;;;;;61.47;39.85;;;22.70;99.90;;;;;;5049606;28;20276;-33
2023/08/18 04:48:28;;;;;;;62.63;42.55;;;22.60;99.90;;;;;;5049757;28;20203;-33
2023/08/18 04:50:55;;;;;;;62.45;41.63;;;22.70;99.90;;;;;;5049597;28;20219;-32
2023/08/18 04:53:27;;;;;;;65.60;40.45;;;22.60;99.90;;;;;;5049627;28;20195;-32
2023/08/18 04:55:54;;;;;;;63.67;41.45;;;22.60;99.90;;;;;;5067330;28;20223;-32
2023/08/18 04:58:24;;;;;;;69.13;41.65;;;22.60;99.90;;;;;;5049528;28;20192;-32
2023/08/18 05:00:53;;;;;;;62.53;42.05;;;22.60;99.90;;;;;;5067206;28;20212;-33
2023/08/18 05:03:23;;;;;;;66.50;41.58;;;22.60;99.90;;;;;;5067449;28;20195;-33
2023/08/18 05:06:00;;;;;;;63.28;41.22;;;22.60;99.90;;;;;;5033998;28;20622;-32
2023/08/18 05:08:27;;;;;;;61.60;39.60;;;22.60;99.90;;;;;;5065966;28;20218;-32
2023/08/18 05:11:06;;;;;;;63.90;40.40;;;22.60;99.90;;;;;;5067182;28;20215;-32
2023/08/18 05:13:40;;;;;;;60.30;38.63;;;22.60;99.90;;;;;;5049473;28;20257;-32
2023/08/18 05:16:15;;;;;;;55.33;37.33;;;22.60;99.90;;;;;;5066887;28;20293;-33
2023/08/18 05:18:46;;;;;;;60.70;38.50;;;22.50;99.90;;;;;;5067044;28;20200;-32
2023/08/18 05:21:13;;;;;;;54.90;37.47;;;22.50;99.90;;;;;;5067167;28;20693;-32
2023/08/18 05:23:40;;;;;;;57.30;37.90;;;22.50;99.90;;;;;;5049003;28;20527;-32
2023/08/18 05:26:10;;;;;;;56.97;37.88;;;22.50;99.90;;;;;;5049122;28;20203;-32
2023/08/18 05:28:40;;;;;;;58.75;37.80;;;22.50;99.90;;;;;;5049206;28;20204;-33
2023/08/18 05:31:17;;;;;;;59.03;38.03;;;22.50;99.90;;;;;;5049267;28;20254;-32
2023/08/18 05:33:45;;;;;;;57.53;37.53;;;22.50;99.90;;;;;;5048430;28;20198;-32
2023/08/18 05:36:18;;;;;;;59.60;39.28;;;22.50;99.90;;;;;;5066495;28;20192;-32
2023/08/18 05:38:45;;;;;;;58.83;38.05;;;22.50;99.90;;;;;;5049114;28;20207;-32
2023/08/18 05:41:14;;;;;;;56.90;38.08;;;22.50;99.90;;;;;;5032479;28;20227;-31
2023/08/18 05:43:44;;;;;;;54.25;37.90;;;22.50;99.90;;;;;;5049062;28;20289;-31
2023/08/18 05:46:11;;;;;;;55.53;36.75;;;22.50;99.90;;;;;;5066631;28;20207;-32
2023/08/18 05:48:51;;;;;;;55.50;37.53;;;22.40;99.90;;;;;;5049781;28;20222;-32
2023/08/18 05:51:19;;;;;;;55.03;36.92;;;22.40;99.90;;;;;;5066309;28;21071;-32
2023/08/18 05:53:48;;;;;;;55.67;37.60;;;22.40;99.90;;;;;;5064791;28;20199;-32
2023/08/18 05:56:18;;;;;;;57.08;37.50;;;22.50;99.90;;;;;;5064761;28;20191;-32
2023/08/18 05:58:47;;;;;;;62.33;38.60;;;22.50;99.90;;;;;;5064573;28;20694;-32
2023/08/18 06:01:14;;;;;;;71.35;40.30;;;22.50;99.90;;;;;;5065675;28;20798;-32
2023/08/18 06:03:42;;;;;;;62.15;38.85;;;22.50;99.90;;;;;;5065932;28;20744;-31
2023/08/18 06:06:09;;;;;;;55.97;37.47;;;22.50;99.90;;;;;;5065949;28;20227;-32
2023/08/18 06:08:37;;;;;;;59.97;38.13;;;22.50;99.90;;;;;;5064476;28;20635;-32
2023/08/18 06:11:07;;;;;;;61.55;39.70;;;22.50;99.90;;;;;;5065958;28;20312;-31
2023/08/18 06:13:34;;;;;;;59.72;38.92;;;22.40;99.90;;;;;;5047786;28;20211;-32
2023/08/18 06:16:07;;;;;;;63.97;38.95;;;22.40;99.90;;;;;;5066087;28;20199;-32
2023/08/18 06:18:34;;;;;;;61.08;38.55;;;22.40;99.90;;;;;;5065702;28;20218;-32
2023/08/18 06:21:04;;;;;;;60.50;38.63;;;22.40;99.90;;;;;;5048597;28;20190;-32
2023/08/18 06:23:42;;;;;;;64.40;39.50;;;22.40;99.90;;;;;;5049172;28;20711;-32
2023/08/18 06:26:11;;;;;;;58.22;38.25;;;22.40;99.90;;;;;;5047874;28;20192;-32
2023/08/18 06:28:38;;;;;;;62.00;38.42;;;22.40;99.90;;;;;;5047509;28;20245;-32
2023/08/18 06:31:08;;;;;;;59.08;36.60;;;22.40;99.90;;;;;;5065606;28;20649;-32
2023/08/18 06:33:39;;;;;;;58.65;36.50;;;22.40;99.90;;;;;;5064282;28;20214;-32
2023/08/18 06:36:08;;;;;;;62.75;35.40;;;22.40;99.90;;;;;;5064070;28;20192;-32
2023/08/18 06:38:40;;;;;;;58.38;34.58;;;22.40;99.90;;;;;;5065576;28;20246;-24
2023/08/18 06:41:12;;;;;;;68.80;37.92;;;22.40;99.90;;;;;;5065643;28;20288;-23
2023/08/18 06:43:39;;;;;;;61.22;37.70;;;22.50;99.90;;;;;;5047278;28;20231;-23
2023/08/18 06:46:06;;;;;;;55.75;37.90;;;22.50;99.90;;;;;;5065382;28;20207;-23
2023/08/18 06:48:36;;;;;;;60.47;39.50;;;22.40;99.90;;;;;;5047099;28;20218;-23
2023/08/18 06:51:05;;;;;;;66.68;37.65;;;22.50;99.90;;;;;;5064967;28;20210;-23
2023/08/18 06:53:33;;;;;;;63.58;38.40;;;22.50;99.90;;;;;;5065103;28;20207;-24
2023/08/18 06:56:00;;;;;;;62.08;39.75;;;22.50;99.90;;;;;;5047483;28;20286;-23
2023/08/18 06:58:30;;;;;;;58.40;37.90;;;22.50;99.90;;;;;;5065764;28;20202;-32
2023/08/18 07:00:58;;;;;;;59.80;37.17;;;22.40;99.90;;;;;;5047111;28;20199;-32
2023/08/18 07:03:29;;;;;;;53.67;35.17;;;22.50;99.90;;;;;;5064926;28;20218;-32
2023/08/18 07:06:02;;;;;;;62.60;37.17;;;22.50;99.90;;;;;;5031556;28;20685;-31
2023/08/18 07:08:32;;;;;;;57.90;36.28;;;22.50;99.90;;;;;;5065433;28;20203;-32
2023/08/18 07:10:59;;;;;;;57.80;36.47;;;22.50;99.90;;;;;;5047357;28;20199;-32
2023/08/18 07:13:31;;;;;;;55.50;35.10;;;22.50;99.90;;;;;;5065380;28;20203;-32
2023/08/18 07:15:58;;;;;;;56.75;34.25;;;22.50;99.90;;;;;;5065195;28;20607;-31
2023/08/18 07:18:25;;;;;;;59.20;35.50;;;22.50;99.90;;;;;;5065037;28;20246;-32
2023/08/18 07:20:53;;;;;;;52.80;35.38;;;22.50;99.90;;;;;;5030937;28;20199;-23
2023/08/18 07:23:20;;;;;;;59.00;35.33;;;22.50;99.90;;;;;;5063594;28;20269;-24
2023/08/18 07:25:47;;;;;;;52.97;33.67;;;22.40;99.90;;;;;;5063720;28;20683;-24
2023/08/18 07:28:14;;;;;;;58.45;35.22;;;22.50;99.90;;;;;;5047234;28;20708;-24
2023/08/18 07:30:44;;;;;;;57.50;35.78;;;22.50;99.90;;;;;;5049835;28;20207;-24
2023/08/18 07:33:14;;;;;;;53.78;35.63;;;22.50;99.90;;;;;;5069552;28;20223;-24
2023/08/18 07:35:45;;;;;;;59.50;37.83;;;22.50;99.90;;;;;;5069384;28;20285;-24
2023/08/18 07:38:12;;;;;;;55.00;35.50;;;22.50;99.90;;;;;;5069166;28;20191;-24
2023/08/18 07:40:43;;;;;;;58.88;37.85;;;22.50;99.90;;;;;;5050810;28;20204;-24
2023/08/18 07:43:14;;;;;;;59.67;37.15;;;22.50;99.90;;;;;;5068774;28;20356;-23
2023/08/18 07:45:41;;;;;;;60.30;37.25;;;22.50;99.90;;;;;;5034016;28;20265;-23
2023/08/18 07:48:10;;;;;;;62.28;37.55;;;22.50;99.90;;;;;;5067173;28;20298;-23
2023/08/18 07:50:40;;;;;;;55.40;36.15;;;22.50;99.90;;;;;;5068506;28;20835;-24
2023/08/18 07:53:07;;;;;;;58.15;35.97;;;22.50;99.90;;;;;;5068716;28;20235;-24
2023/08/18 07:55:36;;;;;;;50.03;34.15;;;22.50;99.90;;;;;;5033853;28;20196;-24
2023/08/18 07:58:04;;;;;;;55.97;35.47;;;22.50;99.90;;;;;;5068482;28;20199;-25
2023/08/18 08:00:32;;;;;;;54.63;34.90;;;22.60;99.90;;;;;;5034008;28;20582;-25
2023/08/18 08:03:01;;;;;;;54.92;35.20;;;22.60;99.90;;;;;;5068521;28;20681;-24
2023/08/18 08:05:32;;;;;;;55.72;35.03;;;22.60;99.90;;;;;;5069060;28;20203;-24
2023/08/18 08:08:05;;;;;;;54.35;35.60;;;22.60;99.90;;;;;;5068554;28;20284;-25
2023/08/18 08:10:33;;;;;;;56.88;35.45;;;22.70;99.90;;;;;;5069117;28;20203;-24
2023/08/18 08:13:02;;;;;;;48.70;32.95;;;22.70;99.90;;;;;;5068582;28;20251;-25
2023/08/18 08:15:30;;;;;;;54.25;34.08;;;22.70;99.90;;;;;;5068260;28;20192;-25
2023/08/18 08:17:58;;;;;;;43.75;31.35;;;22.80;99.90;;;;;;5050345;28;20642;-25
2023/08/18 08:20:28;;;;;;;47.70;32.17;;;22.80;99.90;;;;;;5068339;28;20202;-24
2023/08/18 08:22:57;;;;;;;50.63;32.15;;;22.80;99.90;;;;;;5068258;28;20673;-24
2023/08/18 08:25:27;;;;;;;48.83;32.28;;;22.80;99.90;;;;;;5068387;28;20224;-25
2023/08/18 08:27:58;;;;;;;46.70;31.13;;;22.90;99.90;;;;;;5066506;28;20202;-24
2023/08/18 08:30:26;;;;;;;46.03;31.90;;;22.90;99.90;;;;;;5068109;28;20195;-24
2023/08/18 08:33:08;;;;;;;46.50;32.80;;;23.00;99.90;;;;;;5067904;28;20255;-24
2023/08/18 08:35:38;;;;;;;51.92;33.80;;;23.00;99.90;;;;;;5033118;28;20214;-24
2023/08/18 08:38:08;;;;;;;51.25;33.53;;;23.00;99.90;;;;;;5049742;28;20203;-24
2023/08/18 08:40:41;;;;;;;53.20;32.85;;;23.10;99.90;;;;;;5050788;28;20269;-24
2023/08/18 08:43:09;;;;;;;61.22;34.42;;;23.10;99.90;;;;;;5067105;28;20238;-24
2023/08/18 08:45:42;;;;;;;52.95;33.28;;;23.20;99.90;;;;;;5067903;28;20211;-24
2023/08/18 08:48:11;;;;;;;49.63;33.85;;;23.20;99.90;;;;;;5068093;28;20199;-24
2023/08/18 08:50:42;;;;;;;50.50;33.03;;;23.20;99.90;;;;;;5067305;28;20207;-24
2023/08/18 08:53:13;;;;;;;51.08;32.92;;;23.30;99.90;;;;;;5067212;28;20235;-24
2023/08/18 08:55:45;;;;;;;50.85;33.88;;;23.30;99.90;;;;;;5049022;28;20200;-24
2023/08/18 08:58:13;;;;;;;54.10;34.33;;;23.40;99.90;;;;;;5067287;28;20188;-24
2023/08/18 09:00:44;;;;;;;51.40;34.33;;;23.40;99.90;;;;;;5067245;28;20310;-24
2023/08/18 09:03:14;;;;;;;57.88;36.10;;;23.40;99.90;;;;;;5067421;28;20224;-24
2023/08/18 09:05:44;;;;;;;52.08;34.70;;;23.50;99.90;;;;;;5067169;28;20203;-24
2023/08/18 09:08:13;;;;;;;55.88;34.47;;;23.50;99.90;;;;;;5066819;28;20206;-24
2023/08/18 09:10:42;;;;;;;57.33;36.17;;;23.50;99.90;;;;;;5049356;28;20200;-24
2023/08/18 09:13:10;;;;;;;56.50;36.33;;;23.50;99.90;;;;;;5066788;28;20235;-24
2023/08/18 09:15:48;;;;;;;57.08;38.35;;;23.60;99.90;;;;;;5032900;28;20232;-24
2023/08/18 09:18:17;;;;;;;59.40;37.60;;;23.60;99.90;;;;;;5066772;28;20257;-24
2023/08/18 09:20:46;;;;;;;51.20;35.10;;;23.60;99.90;;;;;;5049394;28;20208;-24
2023/08/18 09:23:16;;;;;;;62.67;37.03;;;23.70;99.90;;;;;;5067459;28;20211;-24
2023/08/18 09:25:49;;;;;;;64.20;39.45;;;23.70;99.90;;;;;;5067397;28;20207;-24
2023/08/18 09:28:18;;;;;;;61.65;38.22;;;23.70;99.90;;;;;;5066540;28;20215;-24
2023/08/18 09:30:51;;;;;;;59.13;36.38;;;23.80;99.90;;;;;;5048775;28;20343;-24
2023/08/18 09:33:26;;;;;;;58.55;35.65;;;23.90;99.90;;;;;;5064718;28;20471;-24
2023/08/18 09:36:04;;;;;;;63.03;38.78;;;24.00;99.90;;;;;;5049215;28;20565;-24
2023/08/18 09:38:40;;;;;;;68.03;38.58;;;24.00;99.90;;;;;;5048949;28;20246;-24
2023/08/18 09:41:12;;;;;;;63.78;37.75;;;24.10;99.90;;;;;;5064999;28;20685;-24
2023/08/18 09:43:41;;;;;;;58.50;38.30;;;24.20;99.90;;;;;;5047623;28;20239;-24
2023/08/18 09:46:12;;;;;;;64.10;39.75;;;24.30;99.90;;;;;;5066123;28;20226;-24
2023/08/18 09:48:49;;;;;;;65.93;37.10;;;24.30;99.90;;;;;;5066465;28;20257;-24
2023/08/18 09:51:21;;;;;;;69.03;42.70;;;24.30;99.90;;;;;;5064448;28;20231;-24
2023/08/18 09:53:59;;;;;;;63.72;39.15;;;24.40;99.90;;;;;;5047262;28;20235;-25
2023/08/18 09:56:35;;;;;;;67.38;40.50;;;24.40;99.90;;;;;;5048097;28;20314;-25
2023/08/18 09:59:39;;;;;;;64.80;39.72;;;24.50;99.90;;;;;;5066559;28;20210;-25
2023/08/18 10:02:07;;;;;;;62.63;39.80;;;24.50;99.90;;;;;;5036200;28;20223;-25
2023/08/18 10:04:41;;;;;;;60.15;37.28;;;24.60;99.90;;;;;;5066295;28;20605;-25
2023/08/18 10:07:09;;;;;;;68.90;41.30;;;24.60;99.90;;;;;;5064484;28;20199;-25
2023/08/18 10:09:44;;;;;;;59.88;40.15;;;24.70;99.90;;;;;;5065782;28;20207;-25
2023/08/18 10:12:12;;;;;;;67.93;41.22;;;24.70;99.90;;;;;;5065600;28;20315;-25
2023/08/18 10:14:42;;;;;;;63.92;39.08;;;24.80;99.90;;;;;;5065882;28;20764;-25
2023/08/18 10:17:11;;;;;;;63.42;39.47;;;24.90;99.90;;;;;;5065560;28;20192;-25
2023/08/18 10:19:55;;;;;;;65.10;41.55;;;25.00;99.90;;;;;;5065869;28;20200;-24
2023/08/18 10:22:26;;;;;;;64.78;40.00;;;25.00;99.90;;;;;;5063853;28;20230;-24
2023/08/18 10:24:57;;;;;;;68.65;42.45;;;25.10;99.90;;;;;;5065550;28;20269;-33
2023/08/18 10:27:28;;;;;;;66.63;42.00;;;25.20;99.90;;;;;;5065477;28;20200;-32
2023/08/18 10:30:12;;;;;;;61.03;41.00;;;25.20;99.90;;;;;;5065163;28;20755;-33
2023/08/18 10:32:47;;;;;;;65.22;41.40;;;25.30;99.90;;;;;;5063909;28;20219;-33
2023/08/18 10:35:31;;;;;;;70.07;41.67;;;25.30;99.90;;;;;;5031635;28;20218;-33
2023/08/18 10:38:05;;;;;;;63.63;40.53;;;25.40;99.90;;;;;;5063964;28;20583;-32
2023/08/18 10:40:37;;;;;;;66.18;41.83;;;25.50;99.90;;;;;;5065167;28;20289;-33
2023/08/18 10:43:13;;;;;;;65.15;41.00;;;25.60;99.90;;;;;;5064910;28;20297;-32
2023/08/18 10:45:49;;;;;;;61.83;40.08;;;25.60;99.90;;;;;;5065016;28;20203;-32
2023/08/18 10:48:17;;;;;;;65.38;39.22;;;25.70;99.90;;;;;;5063526;28;20680;-33
2023/08/18 10:50:45;;;;;;;64.18;41.47;;;25.80;99.90;;;;;;5064883;28;20274;-32
2023/08/18 10:53:16;;;;;;;66.32;41.70;;;25.90;99.90;;;;;;5064891;28;20227;-33
2023/08/18 10:55:46;;;;;;;67.10;41.97;;;25.90;99.90;;;;;;5065149;28;20225;-33
2023/08/18 10:58:15;;;;;;;60.45;39.30;;;26.00;99.90;;;;;;5065193;28;20192;-33
2023/08/18 11:00:45;;;;;;;63.15;39.50;;;26.10;99.90;;;;;;5065331;28;20205;-33
2023/08/18 11:03:13;;;;;;;60.67;38.65;;;26.20;99.90;;;;;;5065039;28;20757;-33
2023/08/18 11:05:40;;;;;;;56.38;36.78;;;26.20;99.90;;;;;;5066724;28;20707;-32
2023/08/18 11:08:10;;;;;;;52.72;36.95;;;26.20;99.90;;;;;;5051085;28;20195;-33
2023/08/18 11:10:39;;;;;;;61.47;37.95;;;26.20;99.90;;;;;;5067577;28;20203;-24
2023/08/18 11:13:23;;;;;;;53.78;36.97;;;26.30;99.90;;;;;;5069436;28;20215;-24
2023/08/18 11:15:54;;;;;;;69.13;40.83;;;26.30;99.90;;;;;;5069367;28;20257;-24
2023/08/18 11:18:24;;;;;;;59.80;39.20;;;26.30;99.90;;;;;;5068072;28;20282;-24
2023/08/18 11:20:58;;;;;;;59.67;39.97;;;26.40;99.90;;;;;;5069259;28;20585;-24
2023/08/18 11:23:28;;;;;;;53.70;37.20;;;26.30;99.90;;;;;;5067181;28;20208;-24
2023/08/18 11:25:56;;;;;;;51.33;36.03;;;26.30;99.90;;;;;;5068626;28;20206;-24
2023/08/18 11:28:26;;;;;;;53.72;36.88;;;26.30;99.90;;;;;;5068761;28;20613;-24
2023/08/18 11:30:55;;;;;;;56.88;37.13;;;26.30;99.90;;;;;;5068923;28;20218;-24
2023/08/18 11:33:26;;;;;;;51.28;35.05;;;26.30;99.90;;;;;;5068659;28;20310;-25
2023/08/18 11:35:55;;;;;;;47.20;34.40;;;26.30;99.90;;;;;;5068536;28;20543;-24
2023/08/18 11:38:25;;;;;;;60.40;35.08;;;26.30;99.90;;;;;;5068199;28;20203;-24
2023/08/18 11:40:52;;;;;;;50.65;34.33;;;26.30;99.90;;;;;;5050540;28;20260;-24
2023/08/18 11:43:23;;;;;;;52.00;35.60;;;26.30;99.90;;;;;;5068184;28;20249;-25
2023/08/18 11:45:54;;;;;;;51.88;35.63;;;26.30;99.90;;;;;;5068360;28;20276;-25
2023/08/18 11:48:23;;;;;;;51.40;34.42;;;26.40;99.90;;;;;;5067046;28;20298;-25
2023/08/18 11:50:56;;;;;;;51.85;34.08;;;26.40;99.90;;;;;;5068325;28;20222;-24
2023/08/18 11:53:28;;;;;;;47.05;33.25;;;26.50;99.90;;;;;;5070898;28;20601;-24
2023/08/18 11:56:01;;;;;;;47.40;33.65;;;26.50;99.90;;;;;;5089313;28;20515;-24
2023/08/18 11:58:28;;;;;;;51.28;33.03;;;26.50;99.90;;;;;;5088881;28;20218;-24
2023/08/18 12:01:04;;;;;;;46.05;32.45;;;26.60;99.90;;;;;;5054447;28;20195;-25
2023/08/18 12:03:33;;;;;;;51.97;33.00;;;26.60;99.90;;;;;;5088235;28;20252;-25
2023/08/18 12:06:04;;;;;;;47.60;33.30;;;26.70;99.90;;;;;;5088425;28;20195;-24
2023/08/18 12:08:31;;;;;;;42.42;30.00;;;26.70;99.90;;;;;;5069988;28;20211;-23
2023/08/18 12:10:59;;;;;;;40.97;30.33;;;26.80;99.90;;;;;;5053539;28;20252;-24
2023/08/18 12:13:30;;;;;;;48.40;32.13;;;26.80;99.90;;;;;;5070353;28;20226;-24
2023/08/18 12:16:05;;;;;;;44.08;31.00;;;26.90;99.90;;;;;;5054068;28;20203;-25
2023/08/18 12:18:35;;;;;;;44.75;30.83;;;27.00;99.90;;;;;;5069347;28;20253;-25
2023/08/18 12:21:07;;;;;;;42.72;29.80;;;27.00;99.90;;;;;;5088022;28;20206;-25
2023/08/18 12:23:34;;;;;;;42.80;30.45;;;27.10;99.90;;;;;;5070040;28;20626;-25
2023/08/18 12:26:04;;;;;;;48.10;30.75;;;27.10;99.90;;;;;;5069912;28;20209;-25
2023/08/18 12:28:34;;;;;;;45.20;31.83;;;27.20;99.90;;;;;;5069766;28;20199;-25
2023/08/18 12:31:03;;;;;;;41.75;30.00;;;27.20;99.90;;;;;;5088331;28;20586;-25
2023/08/18 12:33:36;;;;;;;41.67;29.50;;;27.30;99.90;;;;;;5088207;28;20225;-25
2023/08/18 12:36:11;;;;;;;44.33;31.58;;;27.40;99.90;;;;;;5070003;28;20582;-25
2023/08/18 12:38:40;;;;;;;40.30;28.73;;;27.40;99.90;;;;;;5088020;28;20673;-24
2023/08/18 12:41:08;;;;;;;39.33;27.17;;;27.50;99.90;;;;;;5069670;28;20276;-24
2023/08/18 12:43:41;;;;;;;37.92;28.40;;;27.50;99.90;;;;;;5087727;28;20248;-24